createdAt,value
2018-02-20T00:02:36.902Z,81.27
2018-02-20T00:17:38.647Z,81.28
2018-02-20T00:32:37.561Z,80.78
2018-02-20T00:47:35.247Z,79.65
2018-02-20T01:02:37.153Z,80.91
2018-02-20T01:17:37.004Z,79.35
2018-02-20T01:32:34.941Z,78.27
2018-02-20T01:47:34.952Z,78.83
2018-02-20T02:02:34.353Z,79.33
2018-02-20T02:17:35.245Z,79.84
2018-02-20T02:32:36.228Z,79.72
2018-02-20T02:47:35.161Z,79.80
2018-02-20T03:02:34.582Z,79.54
2018-02-20T03:17:34.463Z,79.37
2018-02-20T03:32:34.468Z,79.83
2018-02-20T03:47:34.365Z,79.87
2018-02-20T04:02:40.891Z,80.16
2018-02-20T04:17:34.722Z,80.52
2018-02-20T04:32:34.738Z,80.00
2018-02-20T04:47:34.660Z,79.28
2018-02-20T05:02:35.073Z,78.96
2018-02-20T05:17:34.954Z,78.87
2018-02-20T05:32:35.390Z,79.25
2018-02-20T05:47:34.823Z,79.72
2018-02-20T06:02:34.235Z,79.73
2018-02-20T06:17:35.261Z,79.83
2018-02-20T06:32:35.802Z,79.70
2018-02-20T06:47:35.073Z,79.62
2018-02-20T07:02:34.551Z,79.31
2018-02-20T07:17:36.548Z,79.22
2018-02-20T07:32:35.412Z,78.67
2018-02-20T07:47:34.300Z,78.21
2018-02-20T08:02:34.926Z,77.25
2018-02-20T08:17:34.681Z,76.61
2018-02-20T08:32:34.555Z,75.69
2018-02-20T08:47:37.420Z,74.41
2018-02-20T09:02:40.324Z,74.43
2018-02-20T09:17:35.918Z,74.41
2018-02-20T09:32:36.864Z,74.32
2018-02-20T09:47:37.736Z,73.88
2018-02-20T10:02:35.203Z,73.37
2018-02-20T10:17:37.192Z,73.09
2018-02-20T10:32:36.092Z,72.33
2018-02-20T10:47:38.005Z,72.16
2018-02-20T11:02:34.442Z,71.45
2018-02-20T11:17:34.328Z,70.94
2018-02-20T11:32:34.227Z,70.97
2018-02-20T11:47:35.303Z,70.91
2018-02-20T12:02:36.578Z,71.53
2018-02-20T12:17:34.883Z,71.79
2018-02-20T12:32:34.522Z,71.34
2018-02-20T12:47:34.443Z,71.35
2018-02-20T13:02:34.798Z,72.22
2018-02-20T13:17:34.329Z,73.11
2018-02-20T13:32:36.968Z,73.39
2018-02-20T13:47:36.651Z,73.81
2018-02-20T14:02:37.310Z,73.98
2018-02-20T14:17:35.042Z,75.37
2018-02-20T14:32:41.669Z,76.33
2018-02-20T15:02:34.236Z,77.61
2018-02-20T15:17:34.434Z,78.38
2018-02-20T15:32:35.102Z,78.69
2018-02-20T15:47:35.107Z,79.65
2018-02-20T16:02:34.530Z,80.51
2018-02-20T16:17:37.504Z,80.92
2018-02-20T16:32:37.385Z,81.13
2018-02-20T16:47:36.292Z,81.13
2018-02-20T17:02:39.380Z,80.50
2018-02-20T17:17:34.712Z,81.06
2018-02-20T17:32:34.857Z,82.01
2018-02-20T17:47:35.526Z,82.89
2018-02-20T18:02:36.960Z,83.28
2018-02-20T18:17:34.891Z,83.61
2018-02-20T18:32:34.804Z,83.69
2018-02-20T18:47:36.781Z,83.76
2018-02-20T19:02:38.658Z,83.98
2018-02-20T19:17:35.144Z,83.58
2018-02-20T19:32:35.055Z,82.56
2018-02-20T19:47:36.976Z,82.77
2018-02-20T20:02:34.367Z,82.80
2018-02-20T20:17:34.275Z,83.74
2018-02-20T20:32:34.338Z,83.99
2018-02-20T20:47:57.507Z,84.47
2018-02-20T21:02:35.094Z,84.33
2018-02-20T21:17:38.014Z,84.42
2018-02-20T21:32:35.099Z,83.92
2018-02-20T21:47:34.952Z,85.11
2018-02-20T22:02:36.635Z,86.72
2018-02-20T22:17:34.318Z,87.49
2018-02-20T22:32:34.619Z,87.96
2018-02-20T22:47:34.598Z,86.90
2018-02-20T23:02:36.439Z,86.05
2018-02-20T23:17:37.362Z,85.83
2018-02-20T23:32:34.306Z,87.62
2018-02-20T23:47:36.245Z,88.58
